Attività con fini culturali e ricreativi - Codice Fiscale 91122750689  


METAR

LIBP 120850Z 24005KT 9999 FEW050 19/07 Q1010

Ultimi caricamenti...


G-OTIF BAe Systems British Aerospace 146-200

 


G-OTIF BAe Systems British Aerospace 146-200

 


G-OTIF BAe Systems British Aerospace 146-200

Questo sito non utilizza cookie di profilazione. Il sito utilizza cookie tecnici, di analisi anonima di prima parte e di terze parti per servizi di social network.